Time;durP1;ratioP1;P1;durP2;ratioP2;P2;SDS_P1;SDS_P2;PMS_P1;PMS_P2;Temp;Humidity;BMP_temperature;BMP_pressure;BME280_temperature;BME280_humidity;BME280_pressure;Samples;Min_cycle;Max_cycle;Signal;HPM_P1;HPM_P2
2022/12/12 00:01:23;;;;;;;9.20;6.43;;;19.90;57.40;;;;;;5055622;27;92886;-90
2022/12/12 00:03:49;;;;;;;11.55;6.97;;;19.80;57.20;;;;;;5052881;27;93249;-88
2022/12/12 00:06:14;;;;;;;9.93;6.85;;;19.80;57.40;;;;;;5051291;27;92757;-88
2022/12/12 00:08:40;;;;;;;9.43;6.25;;;19.80;57.30;;;;;;5053724;27;92834;-88
2022/12/12 00:11:06;;;;;;;9.85;6.85;;;19.70;57.30;;;;;;5051244;27;92158;-85
2022/12/12 00:13:33;;;;;;;12.15;6.95;;;19.70;57.20;;;;;;5057019;27;93787;-88
2022/12/12 00:15:58;;;;;;;10.65;7.32;;;19.80;57.30;;;;;;5054137;27;94110;-87
2022/12/12 00:18:24;;;;;;;8.52;5.93;;;19.70;57.20;;;;;;5052332;27;92964;-87
2022/12/12 00:20:51;;;;;;;10.32;6.50;;;19.70;57.20;;;;;;5052469;27;92834;-88
2022/12/12 00:23:17;;;;;;;9.88;6.05;;;19.70;57.20;;;;;;5050728;27;93067;-88
2022/12/12 00:25:43;;;;;;;11.20;6.95;;;19.70;57.00;;;;;;5053922;27;93399;-87
2022/12/12 00:28:08;;;;;;;10.73;6.55;;;19.60;57.10;;;;;;5055051;27;92638;-86
2022/12/12 00:30:34;;;;;;;10.32;6.55;;;19.60;57.00;;;;;;5054789;27;92380;-86
2022/12/12 00:32:59;;;;;;;9.18;6.18;;;19.60;57.00;;;;;;5052445;27;93364;-89
2022/12/12 00:35:25;;;;;;;9.77;6.35;;;19.60;56.90;;;;;;5053497;27;92309;-86
2022/12/12 00:37:51;;;;;;;8.48;6.07;;;19.60;56.90;;;;;;5052711;27;92713;-86
2022/12/12 00:40:16;;;;;;;9.27;5.90;;;19.60;56.90;;;;;;5056167;27;92456;-89
2022/12/12 00:42:42;;;;;;;9.95;6.88;;;19.60;57.00;;;;;;5049427;27;95867;-87
2022/12/12 00:45:08;;;;;;;9.93;6.07;;;19.50;57.00;;;;;;5050944;27;94718;-83
2022/12/12 00:47:33;;;;;;;9.18;5.63;;;19.50;56.90;;;;;;5053828;27;92870;-88
2022/12/12 00:49:59;;;;;;;9.35;6.25;;;19.50;56.90;;;;;;5051197;27;91987;-88
2022/12/12 00:52:25;;;;;;;11.90;7.15;;;19.50;56.90;;;;;;5051170;27;93395;-85
2022/12/12 00:54:50;;;;;;;11.15;6.45;;;19.40;56.90;;;;;;5051246;27;92085;-86
2022/12/12 00:57:16;;;;;;;10.25;5.93;;;19.40;56.90;;;;;;5053479;27;92684;-85
2022/12/12 00:59:41;;;;;;;9.02;5.75;;;19.40;56.90;;;;;;5035710;27;91578;-87
2022/12/12 01:02:07;;;;;;;9.85;6.40;;;19.40;56.80;;;;;;5052770;27;94535;-87
2022/12/12 01:04:33;;;;;;;8.85;6.15;;;19.40;56.80;;;;;;5050759;27;92054;-87
2022/12/12 01:06:58;;;;;;;8.93;6.00;;;19.40;56.80;;;;;;5048237;27;93545;-90
2022/12/12 01:09:24;;;;;;;10.70;6.63;;;19.40;56.70;;;;;;5053440;27;92758;-87
2022/12/12 01:11:50;;;;;;;9.43;6.38;;;19.40;56.70;;;;;;5054114;27;93005;-86
2022/12/12 01:14:15;;;;;;;9.43;6.10;;;19.40;56.70;;;;;;5050772;27;94118;-85
2022/12/12 01:16:41;;;;;;;8.95;6.03;;;19.30;56.70;;;;;;5054150;27;92077;-86
2022/12/12 01:19:07;;;;;;;8.50;5.82;;;19.30;56.80;;;;;;5051207;27;92515;-88
2022/12/12 01:21:33;;;;;;;9.60;6.22;;;19.30;56.80;;;;;;5051460;27;92879;-85
2022/12/12 01:24:00;;;;;;;9.23;5.93;;;19.30;56.80;;;;;;5050246;27;93149;-88
2022/12/12 01:26:25;;;;;;;8.50;6.10;;;19.30;56.80;;;;;;5050247;27;92306;-87
2022/12/12 01:28:52;;;;;;;8.38;5.78;;;19.30;56.70;;;;;;5049757;27;92240;-86
2022/12/12 01:31:17;;;;;;;8.65;5.93;;;19.30;56.50;;;;;;5050391;27;94343;-88
2022/12/12 01:33:46;;;;;;;8.20;5.68;;;19.20;56.60;;;;;;5053870;27;93131;-85
2022/12/12 01:36:17;;;;;;;8.55;6.05;;;19.20;56.70;;;;;;5050123;27;93784;-84
2022/12/12 01:38:47;;;;;;;8.23;5.43;;;19.20;56.50;;;;;;5053445;27;92743;-90
2022/12/12 01:41:14;;;;;;;8.65;5.80;;;19.20;56.60;;;;;;5051473;27;95648;-84
2022/12/12 01:43:40;;;;;;;8.35;5.63;;;19.20;56.60;;;;;;5052333;27;92844;-88
2022/12/12 01:46:07;;;;;;;7.72;5.82;;;19.20;56.50;;;;;;5051147;27;92482;-86
2022/12/12 01:48:44;;;;;;;9.13;5.72;;;19.10;56.50;;;;;;5052578;27;92171;-88
2022/12/12 01:51:14;;;;;;;10.52;6.32;;;19.20;56.60;;;;;;5045306;27;92637;-88
2022/12/12 01:53:41;;;;;;;8.65;6.30;;;19.10;56.50;;;;;;5050675;27;93238;-87
2022/12/12 01:56:11;;;;;;;8.85;5.18;;;19.10;56.50;;;;;;5050244;27;93237;-87
2022/12/12 01:58:43;;;;;;;8.80;6.20;;;19.10;56.50;;;;;;5054164;27;92076;-88
2022/12/12 02:01:10;;;;;;;9.00;5.70;;;19.10;56.50;;;;;;5051013;27;98051;-89
2022/12/12 02:03:37;;;;;;;9.80;6.55;;;19.10;56.60;;;;;;5052339;27;92873;-88
2022/12/12 02:06:07;;;;;;;8.27;5.45;;;19.00;56.40;;;;;;5051185;27;92063;-88
2022/12/12 02:08:33;;;;;;;8.25;5.82;;;19.00;56.30;;;;;;5051519;27;92326;-86
2022/12/12 02:10:59;;;;;;;7.25;5.32;;;19.00;56.30;;;;;;5051241;27;93831;-87
2022/12/12 02:13:29;;;;;;;8.35;5.40;;;19.00;56.30;;;;;;5050470;27;93673;-87
2022/12/12 02:15:58;;;;;;;8.35;5.35;;;19.00;56.40;;;;;;5051803;27;92530;-83
2022/12/12 02:19:07;;;;;;;8.40;5.23;;;19.00;56.30;;;;;;5049917;27;92397;-84
2022/12/12 02:21:33;;;;;;;8.35;5.63;;;19.00;56.20;;;;;;4948384;28;93216;-86
2022/12/12 02:24:14;;;;;;;8.23;5.55;;;19.00;56.20;;;;;;4954243;28;94546;-84
2022/12/12 02:27:15;;;;;;;8.13;5.55;;;18.90;56.40;;;;;;4951863;28;92199;-88
2022/12/12 02:30:02;;;;;;;6.97;4.80;;;19.00;56.40;;;;;;4951713;28;92142;-85
2022/12/12 02:32:52;;;;;;;7.28;5.07;;;18.90;56.30;;;;;;4951209;28;93609;-85
2022/12/12 02:35:44;;;;;;;7.25;5.32;;;18.90;56.20;;;;;;4950145;28;92971;-89
2022/12/12 02:38:30;;;;;;;7.82;5.10;;;18.90;56.30;;;;;;4950100;28;92395;-87
2022/12/12 02:41:13;;;;;;;7.60;5.55;;;18.90;56.20;;;;;;4951616;28;91740;-84
2022/12/12 02:43:50;;;;;;;7.70;5.35;;;18.90;56.10;;;;;;4954528;28;93778;-88
2022/12/12 02:46:21;;;;;;;7.45;5.32;;;18.80;56.20;;;;;;4951689;28;96528;-85
2022/12/12 02:49:08;;;;;;;7.32;5.15;;;18.90;56.30;;;;;;4952370;28;93886;-87
2022/12/12 02:51:35;;;;;;;7.78;5.70;;;18.90;56.30;;;;;;4951129;28;92105;-86
2022/12/12 02:54:04;;;;;;;7.63;5.57;;;18.80;56.00;;;;;;4950212;28;96509;-85
2022/12/12 02:56:54;;;;;;;6.40;4.82;;;18.80;56.00;;;;;;4951409;28;92825;-88
2022/12/12 02:59:25;;;;;;;7.80;5.43;;;18.80;56.10;;;;;;4982131;28;92350;-87
2022/12/12 03:02:19;;;;;;;6.65;5.15;;;18.80;56.00;;;;;;4981300;28;92589;-84
2022/12/12 03:08:29;;;;;;;7.60;5.13;;;18.70;56.00;;;;;;4981793;28;97931;-86
2022/12/12 03:10:58;;;;;;;6.18;4.82;;;18.70;56.00;;;;;;4977519;28;92618;-85
2022/12/12 03:13:36;;;;;;;7.15;5.57;;;18.70;56.00;;;;;;4982459;28;92847;-84
2022/12/12 03:16:10;;;;;;;6.60;4.78;;;18.70;56.00;;;;;;4980976;28;94079;-86
2022/12/12 03:18:44;;;;;;;6.90;4.65;;;18.70;56.00;;;;;;4981230;28;94305;-86
2022/12/12 03:21:20;;;;;;;7.18;5.43;;;18.70;56.00;;;;;;4982029;28;92164;-87
2022/12/12 03:23:52;;;;;;;7.05;4.78;;;18.70;56.00;;;;;;4981274;28;92394;-84
2022/12/12 03:26:30;;;;;;;6.35;4.82;;;18.70;55.90;;;;;;4981905;28;93863;-85
2022/12/12 03:29:08;;;;;;;5.70;4.50;;;18.70;56.00;;;;;;4964562;28;95500;-84
2022/12/12 03:31:38;;;;;;;7.50;4.97;;;18.70;55.90;;;;;;4981310;28;92348;-84
2022/12/12 03:34:06;;;;;;;;;;;18.70;55.90;;;;;;4981827;28;91950;-87
2022/12/12 03:36:49;;;;;;;6.57;4.88;;;18.60;55.90;;;;;;5022282;27;93259;-85
2022/12/12 03:39:30;;;;;;;6.68;5.13;;;18.60;55.80;;;;;;5054066;27;93322;-86
2022/12/12 03:42:03;;;;;;;6.43;5.10;;;18.60;55.90;;;;;;5052413;27;93100;-83
2022/12/12 03:44:35;;;;;;;6.93;4.60;;;18.60;55.90;;;;;;5054473;27;92023;-83
2022/12/12 03:47:08;;;;;;;7.90;5.78;;;18.60;55.80;;;;;;5054836;27;93124;-85
2022/12/12 03:49:43;;;;;;;5.90;4.55;;;18.60;55.90;;;;;;5053966;27;93301;-85
2022/12/12 03:52:31;;;;;;;7.47;4.80;;;18.50;55.90;;;;;;5052198;27;92634;-84
2022/12/12 03:55:07;;;;;;;6.97;5.07;;;18.50;55.90;;;;;;5051965;27;92510;-83
2022/12/12 03:57:46;;;;;;;6.57;4.60;;;18.50;55.80;;;;;;5052078;27;93699;-85
2022/12/12 04:00:14;;;;;;;7.03;4.97;;;18.50;55.80;;;;;;5052874;27;93114;-84
2022/12/12 04:03:02;;;;;;;7.45;4.88;;;18.50;55.90;;;;;;5053267;27;92668;-86
2022/12/12 04:08:37;;;;;;;6.28;4.65;;;18.40;55.70;;;;;;5054015;27;93382;-87
2022/12/12 04:14:22;;;;;;;6.82;4.68;;;18.50;55.70;;;;;;5054592;27;92132;-85
2022/12/12 04:16:51;;;;;;;7.57;4.60;;;18.40;55.70;;;;;;5053985;27;92512;-85
2022/12/12 04:28:53;;;;;;;7.03;4.47;;;18.40;55.70;;;;;;4960425;28;91500;-86
2022/12/12 04:31:24;;;;;;;6.70;4.57;;;18.40;55.50;;;;;;4961507;28;94775;-83
2022/12/12 04:33:53;;;;;;;6.32;4.40;;;18.40;55.60;;;;;;4960898;28;92366;-86
2022/12/12 04:36:22;;;;;;;6.63;4.95;;;18.40;55.60;;;;;;4960368;28;93382;-84
2022/12/12 04:38:49;;;;;;;5.15;4.20;;;18.30;55.50;;;;;;4960488;28;92309;-84
2022/12/12 04:41:17;;;;;;;5.97;4.85;;;18.30;55.50;;;;;;4960352;28;92606;-85
2022/12/12 04:43:46;;;;;;;5.65;4.22;;;18.30;55.50;;;;;;4960399;28;94605;-84
2022/12/12 04:46:25;;;;;;;6.13;4.65;;;18.30;55.50;;;;;;4961322;28;92085;-83
2022/12/12 04:48:55;;;;;;;7.00;4.82;;;18.30;55.40;;;;;;4960372;28;92942;-86
2022/12/12 04:51:28;;;;;;;6.68;4.85;;;18.30;55.20;;;;;;4960331;28;93258;-85
2022/12/12 04:54:07;;;;;;;6.00;4.80;;;18.30;55.30;;;;;;4960562;28;92555;-87
2022/12/12 04:56:36;;;;;;;5.75;4.63;;;18.30;55.50;;;;;;4960847;28;92363;-83
2022/12/12 04:59:03;;;;;;;8.00;5.22;;;18.30;55.30;;;;;;4960050;28;92419;-85
2022/12/12 05:01:32;;;;;;;6.15;4.63;;;18.30;55.30;;;;;;4960216;28;95369;-85
2022/12/12 05:04:04;;;;;;;6.80;4.77;;;18.30;55.40;;;;;;4960262;28;93815;-86
2022/12/12 05:06:40;;;;;;;6.70;4.65;;;18.20;55.40;;;;;;5053814;27;92621;-86
2022/12/12 05:09:07;;;;;;;6.40;4.22;;;18.30;55.30;;;;;;5052349;27;92516;-85
2022/12/12 05:11:33;;;;;;;4.63;3.63;;;18.30;55.30;;;;;;5051591;27;93107;-86
2022/12/12 05:13:59;;;;;;;5.38;4.07;;;18.20;55.40;;;;;;5051375;27;92857;-86
2022/12/12 05:16:31;;;;;;;5.93;4.68;;;18.30;55.40;;;;;;5056167;27;92629;-84
2022/12/12 05:18:58;;;;;;;6.55;4.90;;;18.30;55.50;;;;;;5054125;27;91632;-86
2022/12/12 05:21:24;;;;;;;6.25;4.43;;;18.20;55.20;;;;;;5033938;27;95846;-83
2022/12/12 05:23:49;;;;;;;5.10;4.20;;;18.20;55.20;;;;;;5032069;27;92828;-84
2022/12/12 05:26:28;;;;;;;6.85;4.50;;;18.30;55.20;;;;;;5029863;27;93617;-84
2022/12/12 05:28:54;;;;;;;7.15;4.68;;;18.30;55.10;;;;;;5031176;27;92723;-87
2022/12/12 05:31:20;;;;;;;4.78;3.65;;;18.30;55.10;;;;;;5034232;27;93599;-83
2022/12/12 05:33:46;;;;;;;6.57;4.18;;;18.30;55.00;;;;;;5028869;27;93181;-87
2022/12/12 05:36:12;;;;;;;6.25;4.63;;;18.30;54.90;;;;;;5028124;27;92726;-83
2022/12/12 05:38:39;;;;;;;5.40;4.13;;;18.30;55.00;;;;;;5030218;27;92043;-85
2022/12/12 05:41:05;;;;;;;5.40;4.63;;;18.20;54.90;;;;;;5027581;27;93677;-86
2022/12/12 05:43:31;;;;;;;5.75;3.85;;;18.30;54.90;;;;;;5033043;27;92296;-86
2022/12/12 05:45:57;;;;;;;6.45;4.55;;;18.30;55.10;;;;;;5027456;27;92503;-86
2022/12/12 05:48:22;;;;;;;5.38;4.20;;;18.20;54.80;;;;;;5034363;27;92921;-86
2022/12/12 05:50:48;;;;;;;5.30;3.90;;;18.20;55.00;;;;;;5031658;27;93172;-84
2022/12/12 05:53:14;;;;;;;5.30;4.15;;;18.20;55.00;;;;;;5033191;27;94760;-87
2022/12/12 05:55:40;;;;;;;5.95;4.35;;;18.20;54.90;;;;;;5035950;27;92176;-83
2022/12/12 05:58:06;;;;;;;6.25;4.07;;;18.20;54.80;;;;;;5016028;27;92568;-87
2022/12/12 06:00:31;;;;;;;4.57;3.70;;;18.30;54.90;;;;;;5032904;27;94112;-86
2022/12/12 06:02:57;;;;;;;5.05;4.10;;;18.20;55.00;;;;;;5032734;27;92861;-85
2022/12/12 06:05:23;;;;;;;4.60;3.92;;;18.20;54.80;;;;;;5036958;27;92958;-87
2022/12/12 06:07:48;;;;;;;5.18;4.20;;;18.20;54.80;;;;;;5035166;27;91805;-83
2022/12/12 06:10:14;;;;;;;5.80;3.92;;;18.20;54.80;;;;;;5038216;27;92997;-86
2022/12/12 06:12:40;;;;;;;6.20;4.00;;;18.20;54.90;;;;;;5035353;27;93364;-84
2022/12/12 06:15:06;;;;;;;5.13;4.10;;;18.20;54.90;;;;;;5032888;27;93363;-88
2022/12/12 06:17:32;;;;;;;6.07;3.97;;;18.20;54.90;;;;;;5034058;27;92609;-86
2022/12/12 06:19:58;;;;;;;5.53;3.97;;;18.20;55.00;;;;;;5039382;27;93644;-85
2022/12/12 06:22:23;;;;;;;5.60;4.13;;;18.20;55.30;;;;;;5054948;27;92366;-89
2022/12/12 06:24:49;;;;;;;4.90;3.70;;;18.20;54.70;;;;;;5056245;27;92409;-88
2022/12/12 06:27:14;;;;;;;5.88;4.18;;;18.20;54.80;;;;;;5053328;27;92415;-89
2022/12/12 06:29:40;;;;;;;5.57;3.95;;;18.20;54.80;;;;;;5036468;27;98683;-88
2022/12/12 06:32:06;;;;;;;5.82;4.15;;;18.20;54.90;;;;;;5057228;27;93376;-85
2022/12/12 06:34:32;;;;;;;5.22;4.22;;;18.20;54.80;;;;;;5054806;27;92506;-87
2022/12/12 06:36:57;;;;;;;4.40;3.85;;;18.20;54.80;;;;;;5053526;27;92416;-85
2022/12/12 06:39:23;;;;;;;5.55;3.90;;;18.20;54.70;;;;;;5054560;27;95126;-85
2022/12/12 06:41:49;;;;;;;4.60;3.80;;;18.20;54.60;;;;;;5055861;27;93892;-85
2022/12/12 06:44:14;;;;;;;4.82;4.10;;;18.20;54.80;;;;;;5052209;27;92395;-84
2022/12/12 06:46:40;;;;;;;5.20;4.20;;;18.20;54.90;;;;;;5053971;27;92254;-84
2022/12/12 06:49:08;;;;;;;4.88;4.18;;;18.20;54.70;;;;;;5054159;27;93620;-85
2022/12/12 06:51:42;;;;;;;4.78;3.72;;;18.20;54.80;;;;;;5055845;27;92726;-85
2022/12/12 06:54:09;;;;;;;4.72;3.95;;;18.20;54.70;;;;;;5053908;27;92120;-87
2022/12/12 06:56:34;;;;;;;4.90;3.75;;;18.20;54.60;;;;;;5053565;27;91628;-86
2022/12/12 06:59:00;;;;;;;5.07;4.13;;;18.10;54.50;;;;;;5050537;27;93245;-85
2022/12/12 07:01:26;;;;;;;4.63;3.78;;;18.20;54.40;;;;;;5052796;27;93091;-85
2022/12/12 07:03:52;;;;;;;4.82;3.47;;;18.20;54.60;;;;;;5055420;27;93602;-86
2022/12/12 07:06:19;;;;;;;4.60;3.70;;;18.20;54.60;;;;;;5053695;27;92617;-87
2022/12/12 07:08:46;;;;;;;5.82;3.90;;;18.20;54.60;;;;;;5056939;27;93345;-85
2022/12/12 07:11:14;;;;;;;4.07;3.20;;;18.20;54.50;;;;;;5053135;27;92941;-87
2022/12/12 07:13:41;;;;;;;7.57;4.73;;;18.20;54.50;;;;;;5052601;27;92373;-85
2022/12/12 07:16:07;;;;;;;8.35;4.38;;;18.30;52.50;;;;;;5053329;27;92232;-86
2022/12/12 07:18:33;;;;;;;11.18;4.63;;;18.30;53.00;;;;;;5054976;27;93633;-83
2022/12/12 07:21:02;;;;;;;9.48;4.80;;;18.30;53.30;;;;;;5056895;27;92501;-84
2022/12/12 07:23:28;;;;;;;6.80;4.57;;;18.40;51.50;;;;;;5057843;27;92538;-83
2022/12/12 07:25:53;;;;;;;5.00;3.97;;;18.40;51.30;;;;;;5051379;27;93395;-84
2022/12/12 07:28:19;;;;;;;7.75;4.53;;;18.40;51.80;;;;;;5064347;27;94304;-86
2022/12/12 07:30:47;;;;;;;6.57;4.25;;;18.60;52.60;;;;;;5052907;27;94321;-88
2022/12/12 07:33:15;;;;;;;8.55;5.38;;;18.70;52.60;;;;;;5035419;27;92330;-87
2022/12/12 07:35:41;;;;;;;9.32;6.05;;;18.80;51.50;;;;;;5054823;27;93012;-89
2022/12/12 07:38:08;;;;;;;11.63;5.50;;;18.80;51.10;;;;;;5053490;27;93636;-85
2022/12/12 07:40:34;;;;;;;8.80;5.30;;;18.90;51.30;;;;;;5055541;27;92910;-85
2022/12/12 07:43:00;;;;;;;10.60;6.28;;;19.10;51.20;;;;;;5055999;27;92567;-86
2022/12/12 07:45:26;;;;;;;7.60;5.43;;;19.20;50.20;;;;;;5054876;27;91708;-86
2022/12/12 07:47:52;;;;;;;19.70;6.43;;;19.30;49.40;;;;;;5054877;27;93878;-85
2022/12/12 07:50:18;;;;;;;9.82;5.68;;;19.40;46.80;;;;;;5052170;27;93234;-85
2022/12/12 07:52:44;;;;;;;8.98;5.50;;;19.50;47.90;;;;;;5051914;27;93862;-83
2022/12/12 07:55:10;;;;;;;11.02;6.25;;;19.50;49.10;;;;;;5054082;27;92445;-86
2022/12/12 07:57:36;;;;;;;10.98;5.60;;;19.50;49.30;;;;;;5052424;27;93662;-82
2022/12/12 08:00:05;;;;;;;13.27;5.65;;;19.50;49.60;;;;;;5051060;27;92681;-86
2022/12/12 08:02:30;;;;;;;9.93;4.87;;;19.50;49.90;;;;;;5055033;27;92049;-85
2022/12/12 08:04:56;;;;;;;7.70;5.15;;;19.50;49.90;;;;;;5055205;27;92420;-83
2022/12/12 08:07:22;;;;;;;8.15;4.95;;;19.50;50.10;;;;;;5053653;27;93362;-85
2022/12/12 08:09:47;;;;;;;8.90;5.00;;;19.50;50.10;;;;;;5053427;27;99511;-85
2022/12/12 08:12:13;;;;;;;17.95;5.88;;;19.40;50.30;;;;;;5051685;27;92643;-85
2022/12/12 08:14:38;;;;;;;8.68;5.43;;;19.60;49.70;;;;;;5051775;27;92433;-87
2022/12/12 08:17:04;;;;;;;9.90;4.70;;;19.60;50.20;;;;;;5052014;27;94520;-84
2022/12/12 08:19:30;;;;;;;9.90;4.93;;;19.50;50.30;;;;;;5053317;27;93159;-83
2022/12/12 08:21:56;;;;;;;11.93;4.82;;;19.40;50.70;;;;;;5054018;27;92431;-84
2022/12/12 08:24:21;;;;;;;12.23;5.40;;;19.40;50.90;;;;;;5048447;27;93115;-86
2022/12/12 08:26:49;;;;;;;7.78;4.38;;;19.40;51.10;;;;;;5050874;27;92260;-83
2022/12/12 08:29:14;;;;;;;6.78;4.95;;;19.40;51.20;;;;;;5050311;27;96442;-85
2022/12/12 08:31:40;;;;;;;9.45;5.85;;;19.30;51.30;;;;;;5051260;27;92029;-85
2022/12/12 08:34:06;;;;;;;9.40;5.10;;;19.40;50.40;;;;;;5050711;27;92029;-85
2022/12/12 08:36:33;;;;;;;10.00;5.30;;;19.30;50.70;;;;;;5051082;27;93655;-84
2022/12/12 08:39:25;;;;;;;11.10;5.55;;;19.30;51.20;;;;;;5032106;27;95438;-85
2022/12/12 08:41:52;;;;;;;10.95;5.20;;;19.30;51.10;;;;;;4947796;28;93512;-84
2022/12/12 08:44:19;;;;;;;8.07;5.15;;;19.30;51.20;;;;;;4920836;28;92298;-85
2022/12/12 08:46:45;;;;;;;12.63;6.05;;;19.20;51.40;;;;;;4949698;28;93646;-83
2022/12/12 08:49:11;;;;;;;13.45;5.38;;;19.20;51.10;;;;;;4951096;28;93735;-86
2022/12/12 08:51:38;;;;;;;17.35;5.97;;;19.30;51.40;;;;;;4947412;28;92799;-86
2022/12/12 08:54:03;;;;;;;19.70;7.20;;;19.20;51.40;;;;;;4950911;28;92929;-84
2022/12/12 08:56:29;;;;;;;15.82;6.90;;;19.30;51.30;;;;;;4949569;28;92953;-83
2022/12/12 08:58:55;;;;;;;19.58;6.85;;;19.30;51.10;;;;;;4946151;28;95938;-82
2022/12/12 09:01:23;;;;;;;22.65;7.88;;;19.30;51.40;;;;;;4949773;28;92653;-85
2022/12/12 09:03:51;;;;;;;13.90;5.80;;;19.20;51.40;;;;;;4949851;28;92712;-85
2022/12/12 09:06:17;;;;;;;17.13;6.32;;;19.40;51.60;;;;;;4943226;28;94651;-86
2022/12/12 09:08:43;;;;;;;19.10;6.97;;;19.50;51.10;;;;;;4948248;28;93829;-84
2022/12/12 09:11:10;;;;;;;22.48;6.28;;;19.50;51.20;;;;;;4951253;28;92367;-84
2022/12/12 09:13:38;;;;;;;16.75;7.10;;;19.60;51.10;;;;;;4946888;28;92524;-86
2022/12/12 09:16:05;;;;;;;19.50;7.35;;;19.70;50.80;;;;;;4950707;28;94386;-84
2022/12/12 09:18:31;;;;;;;23.30;7.35;;;19.80;50.70;;;;;;4993098;27;92568;-87
2022/12/12 09:20:58;;;;;;;21.42;7.30;;;19.90;50.30;;;;;;5050556;27;92307;-83
2022/12/12 09:23:24;;;;;;;27.40;7.18;;;19.90;50.40;;;;;;5054917;27;91723;-88
2022/12/12 09:25:50;;;;;;;26.55;8.20;;;20.00;50.00;;;;;;5052665;27;92832;-84
2022/12/12 09:28:18;;;;;;;26.30;7.68;;;20.00;49.80;;;;;;5051641;27;92360;-85
2022/12/12 09:30:45;;;;;;;22.15;7.93;;;19.90;50.00;;;;;;5051842;27;92993;-82
2022/12/12 09:33:11;;;;;;;17.85;7.43;;;19.90;50.10;;;;;;5051272;27;92534;-87
2022/12/12 09:35:37;;;;;;;25.80;7.53;;;19.80;50.20;;;;;;5050678;27;93484;-82
2022/12/12 09:38:03;;;;;;;25.17;8.85;;;19.80;50.30;;;;;;5031875;27;94296;-87
2022/12/12 09:40:57;;;;;;;33.38;8.82;;;19.30;38.90;;;;;;5051927;27;92374;-83
2022/12/12 09:43:30;;;;;;;26.48;7.40;;;19.10;45.00;;;;;;4959117;28;93210;-88
2022/12/12 09:45:56;;;;;;;19.60;6.75;;;19.20;48.80;;;;;;4958657;28;92734;-89
2022/12/12 09:48:37;;;;;;;18.90;7.15;;;19.20;50.90;;;;;;4958484;28;94359;-87
2022/12/12 09:51:03;;;;;;;17.65;6.93;;;19.40;49.30;;;;;;4960188;28;92759;-84
2022/12/12 09:53:29;;;;;;;20.77;6.95;;;19.40;49.40;;;;;;4959519;28;92791;-83
2022/12/12 09:56:16;;;;;;;18.25;6.57;;;19.50;49.60;;;;;;4959958;28;94449;-88
2022/12/12 09:58:55;;;;;;;22.80;6.68;;;19.60;49.20;;;;;;4960704;28;93178;-88
2022/12/12 10:02:14;;;;;;;24.92;6.90;;;19.60;49.50;;;;;;4960951;28;92132;-86
2022/12/12 10:05:00;;;;;;;22.55;6.75;;;19.60;49.80;;;;;;4941304;28;92621;-84
2022/12/12 10:07:52;;;;;;;22.40;7.90;;;19.60;49.70;;;;;;4940825;28;93438;-89
2022/12/12 10:10:35;;;;;;;34.63;7.28;;;19.60;49.90;;;;;;4938060;28;97412;-86
2022/12/12 10:13:03;;;;;;;66.93;9.93;;;19.80;50.10;;;;;;4940208;28;92743;-88
2022/12/12 10:15:42;;;;;;;69.18;10.18;;;19.80;50.20;;;;;;4925143;28;91957;-86
2022/12/12 10:18:14;;;;;;;74.85;12.13;;;19.80;50.60;;;;;;4939072;28;93066;-90
2022/12/12 10:20:47;;;;;;;67.90;10.93;;;19.80;50.90;;;;;;4975555;28;92976;-88
2022/12/12 10:23:24;;;;;;;61.92;10.82;;;19.90;50.70;;;;;;5007907;28;93087;-88
2022/12/12 10:26:08;;;;;;;54.33;10.15;;;20.00;51.30;;;;;;5007826;28;92394;-84
2022/12/12 10:28:36;;;;;;;75.53;10.82;;;19.90;52.00;;;;;;5008628;28;92219;-86
2022/12/12 10:31:39;;;;;;;74.22;10.95;;;19.90;51.50;;;;;;5006760;28;93327;-87
2022/12/12 10:34:32;;;;;;;58.78;9.73;;;19.90;51.70;;;;;;5005275;28;92120;-86
2022/12/12 10:37:21;;;;;;;44.15;8.77;;;19.90;51.80;;;;;;4977169;28;93405;-86
2022/12/12 10:40:02;;;;;;;59.88;9.35;;;19.90;52.20;;;;;;5007044;28;93396;-85
2022/12/12 10:42:46;;;;;;;51.53;9.35;;;19.90;52.40;;;;;;5012891;28;93767;-86
2022/12/12 10:45:35;;;;;;;51.05;8.50;;;19.90;52.50;;;;;;5012583;28;92428;-87
2022/12/12 10:48:01;;;;;;;54.53;10.13;;;19.90;52.60;;;;;;5011477;28;93173;-84
2022/12/12 10:50:37;;;;;;;65.00;9.40;;;20.00;52.90;;;;;;5007443;28;97651;-88
2022/12/12 10:53:06;;;;;;;52.47;9.15;;;19.90;52.80;;;;;;5009064;28;94039;-87
2022/12/12 10:55:52;;;;;;;49.47;9.38;;;19.90;53.30;;;;;;5012568;28;93127;-91
2022/12/12 10:58:25;;;;;;;47.83;8.68;;;19.90;53.30;;;;;;5013620;28;92596;-85
2022/12/12 11:00:58;;;;;;;46.97;8.98;;;19.90;53.90;;;;;;5016845;28;93222;-88
2022/12/12 11:03:37;;;;;;;34.88;8.00;;;19.80;54.50;;;;;;5013590;28;92524;-88
2022/12/12 11:06:06;;;;;;;47.90;9.13;;;19.70;54.50;;;;;;5014207;28;92225;-87
2022/12/12 11:08:36;;;;;;;35.92;8.18;;;19.70;54.80;;;;;;5044423;27;91942;-89
2022/12/12 11:11:01;;;;;;;;;;;19.80;55.60;;;;;;5055241;27;93831;-88
2022/12/12 11:13:27;;;;;;;34.67;7.13;;;19.80;54.90;;;;;;5055810;27;92075;-86
2022/12/12 11:16:05;;;;;;;47.28;8.30;;;19.80;55.10;;;;;;5054807;27;92915;-83
2022/12/12 11:18:31;;;;;;;32.25;7.85;;;19.70;55.00;;;;;;5053192;27;91987;-84
2022/12/12 11:21:05;;;;;;;35.53;8.48;;;19.80;55.80;;;;;;5050878;27;93408;-87
2022/12/12 11:23:32;;;;;;;29.35;7.15;;;19.80;55.10;;;;;;5056035;27;92831;-84
2022/12/12 11:26:14;;;;;;;28.90;7.38;;;19.80;55.00;;;;;;5054385;27;92046;-86
2022/12/12 11:28:42;;;;;;;32.78;7.40;;;19.90;54.90;;;;;;5056517;27;92795;-83
2022/12/12 11:31:13;;;;;;;33.05;7.68;;;19.80;54.90;;;;;;5051458;27;98134;-84
2022/12/12 11:33:45;;;;;;;27.90;8.02;;;19.90;55.10;;;;;;5055261;27;93251;-89
2022/12/12 11:36:35;;;;;;;33.05;7.97;;;19.90;55.10;;;;;;5056213;27;92363;-87
2022/12/12 11:39:13;;;;;;;35.38;7.60;;;20.00;55.30;;;;;;4952362;28;92612;-83
2022/12/12 11:42:04;;;;;;;33.42;7.72;;;20.00;54.90;;;;;;4950450;28;94089;-88
2022/12/12 11:44:36;;;;;;;31.90;7.70;;;20.00;55.30;;;;;;4953151;28;93944;-84
2022/12/12 11:47:21;;;;;;;35.60;8.32;;;20.10;54.60;;;;;;4947743;28;92437;-85
2022/12/12 11:49:52;;;;;;;36.47;7.13;;;20.20;54.00;;;;;;4941220;28;92144;-84
2022/12/12 11:52:30;;;;;;;31.13;6.40;;;20.20;54.70;;;;;;4947622;28;92895;-85
2022/12/12 11:54:56;;;;;;;27.10;6.30;;;20.20;54.60;;;;;;4949317;28;96497;-86
2022/12/12 11:57:37;;;;;;;31.92;6.63;;;20.20;51.40;;;;;;4950444;28;92698;-85
2022/12/12 12:00:19;;;;;;;32.65;7.78;;;20.20;52.50;;;;;;4952328;28;94126;-85
2022/12/12 12:03:21;;;;;;;34.78;7.72;;;20.20;53.10;;;;;;4951172;28;92808;-85
2022/12/12 12:06:05;;;;;;;25.83;6.50;;;20.10;53.60;;;;;;4951619;28;95494;-86
2022/12/12 12:08:49;;;;;;;26.75;6.70;;;20.10;53.80;;;;;;4948436;28;93153;-83
2022/12/12 12:11:15;;;;;;;27.35;6.78;;;20.00;53.20;;;;;;4947540;28;92656;-84
2022/12/12 12:14:01;;;;;;;28.58;6.35;;;19.90;54.00;;;;;;4950365;28;93508;-81
2022/12/12 12:16:40;;;;;;;25.08;6.25;;;19.80;54.30;;;;;;5017165;27;96765;-85
2022/12/12 12:19:15;;;;;;;27.45;6.00;;;19.80;54.40;;;;;;5054541;27;92431;-82
2022/12/12 12:21:54;;;;;;;29.83;6.72;;;19.70;54.40;;;;;;5033226;27;92605;-84
2022/12/12 12:24:35;;;;;;;25.45;6.40;;;19.70;54.30;;;;;;5051822;27;93506;-84
2022/12/12 12:27:10;;;;;;;18.23;5.32;;;19.70;54.30;;;;;;5053100;27;92370;-85
2022/12/12 12:29:41;;;;;;;21.80;5.70;;;19.80;53.50;;;;;;5049418;27;92530;-84
2022/12/12 12:32:45;;;;;;;18.90;5.50;;;19.80;53.60;;;;;;5052487;27;92339;-85
2022/12/12 12:35:32;;;;;;;20.55;5.68;;;19.90;53.50;;;;;;5049870;27;93758;-84
2022/12/12 12:38:40;;;;;;;22.58;5.80;;;20.00;53.70;;;;;;5052015;27;93952;-84
2022/12/12 12:41:27;;;;;;;24.07;5.77;;;20.00;54.40;;;;;;5051101;27;92267;-83
2022/12/12 12:44:23;;;;;;;23.58;5.63;;;20.10;54.50;;;;;;5052954;27;92518;-86
2022/12/12 12:47:02;;;;;;;17.70;5.25;;;20.10;53.80;;;;;;5051737;27;93281;-86
2022/12/12 12:49:33;;;;;;;19.20;5.60;;;20.10;51.80;;;;;;5049554;27;92456;-85
2022/12/12 12:52:11;;;;;;;16.33;5.15;;;20.10;53.60;;;;;;5054647;27;92438;-85
2022/12/12 12:54:39;;;;;;;16.23;5.35;;;20.10;54.20;;;;;;5052547;27;92164;-83
2022/12/12 12:57:16;;;;;;;20.80;5.32;;;20.10;54.20;;;;;;5050750;27;93086;-86
2022/12/12 12:59:49;;;;;;;19.27;5.10;;;20.10;54.30;;;;;;5053056;27;93231;-83
2022/12/12 13:02:23;;;;;;;22.58;5.75;;;20.10;53.70;;;;;;5049195;27;93319;-84
2022/12/12 13:05:02;;;;;;;17.75;5.22;;;20.10;53.50;;;;;;5034054;27;92075;-85
2022/12/12 13:07:46;;;;;;;11.60;5.10;;;20.10;53.60;;;;;;5054403;27;92627;-85
2022/12/12 13:10:25;;;;;;;16.80;5.53;;;20.10;53.90;;;;;;5051333;27;97130;-82
2022/12/12 13:12:56;;;;;;;19.08;5.75;;;20.10;53.70;;;;;;5049735;27;92835;-86
2022/12/12 13:15:25;;;;;;;14.05;4.13;;;20.10;53.80;;;;;;5049691;27;92525;-83
2022/12/12 13:18:00;;;;;;;14.02;5.25;;;20.20;52.70;;;;;;5049002;27;93630;-85
2022/12/12 13:20:28;;;;;;;12.70;4.95;;;20.10;53.20;;;;;;5049086;27;92552;-86
2022/12/12 13:23:09;;;;;;;12.13;5.43;;;20.00;54.00;;;;;;5050149;27;92060;-85
2022/12/12 13:25:35;;;;;;;15.38;4.97;;;20.00;54.10;;;;;;5051999;27;92215;-83